Observation data for Seminole on 06/20/2019      Previous  Date  Next       Current Mesonet Observations  Soil Data  Daily Summary Page  Observations in Plain Language
KSM1 200500Z 25008KT 25/01 A2984 RMK A01 T02510011  RH  021%=      5-min Rain = 0
KSM1 200505Z 25008KT 25/01 A2984 RMK A01 T02490010  RH  021%=      5-min Rain = 0
KSM1 200510Z 25008KT 25/01 A2984 RMK A01 T02490008  RH  021%=      5-min Rain = 0
KSM1 200515Z 25008KT 25/01 A2984 RMK A01 T02500005  RH  020%=      5-min Rain = 0
KSM1 200520Z 25008KT 25/00 A2984 RMK A01 T02510002  RH  020%=      5-min Rain = 0
KSM1 200525Z 26008KT 25/M01 A2984 RMK A01 T02541006  RH  018%=      5-min Rain = 0
KSM1 200530Z 26008KT 26/M01 A2984 RMK A01 T02601012  RH  017%=      5-min Rain = 0
KSM1 200535Z 26009KT 26/M01 A2984 RMK A01 T02611014  RH  016%=      5-min Rain = 0
KSM1 200540Z 26008KT 26/M02 A2984 RMK A01 T02611015  RH  016%=      5-min Rain = 0
KSM1 200545Z 26008KT 26/M01 A2984 RMK A01 T02601013  RH  017%=      5-min Rain = 0
KSM1 200550Z 26007KT 26/M01 A2984 RMK A01 T02571009  RH  018%=      5-min Rain = 0
KSM1 200555Z 25007KT 25/M00 A2984 RMK A01 T02511002  RH  019%=      5-min Rain = 0
KSM1 200600Z 25007KT 24/00 A2984 RMK A01 T02440003  RH  021%=      5-min Rain = 0
KSM1 200605Z 25006KT 24/00 A2984 RMK A01 T02400004  RH  021%=      5-min Rain = 0
KSM1 200610Z 25007KT 24/00 A2984 RMK A01 T02400000  RH  021%=      5-min Rain = 0
KSM1 200615Z 26007KT 24/M00 A2984 RMK A01 T02401001  RH  021%=      5-min Rain = 0
KSM1 200620Z 26007KT 24/M00 A2984 RMK A01 T02401003  RH  020%=      5-min Rain = 0
KSM1 200625Z 25007KT 24/M00 A2984 RMK A01 T02401001  RH  020%=      5-min Rain = 0
KSM1 200630Z 25007KT 24/00 A2984 RMK A01 T02380000  RH  021%=      5-min Rain = 0
KSM1 200635Z 26007KT 24/M00 A2984 RMK A01 T02381004  RH  020%=      5-min Rain = 0
KSM1 200640Z 26007KT 24/M01 A2984 RMK A01 T02401007  RH  020%=      5-min Rain = 0
KSM1 200645Z 26007KT 24/M01 A2984 RMK A01 T02401006  RH  020%=      5-min Rain = 0
KSM1 200650Z 26008KT 24/M00 A2984 RMK A01 T02371002  RH  021%=      5-min Rain = 0
KSM1 200655Z 26009KT 24/M00 A2983 RMK A01 T02371004  RH  020%=      5-min Rain = 0
KSM1 200700Z 27008KT 24/00 A2983 RMK A01 T023600-0  RH  021%=      5-min Rain = 0
KSM1 200705Z 27008KT 23/01 A2983 RMK A01 T02300005  RH  023%=      5-min Rain = 0
KSM1 200710Z 27007KT 23/01 A2984 RMK A01 T02250008  RH  024%=      5-min Rain = 0
KSM1 200715Z 27006KT 22/01 A2984 RMK A01 T02220009  RH  025%=      5-min Rain = 0
KSM1 200720Z 27005KT 22/01 A2984 RMK A01 T02210008  RH  025%=      5-min Rain = 0
KSM1 200725Z 28002KT 22/03 A2984 RMK A01 T02150031  RH  030%=      5-min Rain = 0
KSM1 200730Z 05003KT 20/05 A2984 RMK A01 T01960046  RH  038%=      5-min Rain = 0
KSM1 200735Z 04007KT 19/04 A2984 RMK A01 T01890038  RH  037%=      5-min Rain = 0
KSM1 200740Z 04008G13KT 21/02 A2984 RMK A01 T02050015  RH  029%=      5-min Rain = 0
KSM1 200745Z 03006G15KT 23/M02 A2985 RMK A01 T02321016  RH  019%=      5-min Rain = 0
KSM1 200750Z 00007KT 25/M02 A2985 RMK A01 T02511015  RH  018%=      5-min Rain = 0
KSM1 200755Z 02005KT 25/07 A2985 RMK A01 T02480072  RH  034%=      5-min Rain = 0
KSM1 200800Z 05006KT 23/11 A2985 RMK A01 T02300111  RH  049%=      5-min Rain = 0
KSM1 200805Z 03004KT 22/11 A2985 RMK A01 T02190110  RH  051%=      5-min Rain = 0
KSM1 200810Z 02004KT 22/11 A2985 RMK A01 T02170113  RH  054%=      5-min Rain = 0
KSM1 200815Z 34005KT 21/10 A2984 RMK A01 T02140099  RH  049%=      5-min Rain = 0
KSM1 200820Z 33004KT 22/09 A2984 RMK A01 T02190087  RH  044%=      5-min Rain = 0
KSM1 200825Z 32002KT 22/08 A2984 RMK A01 T02230083  RH  042%=      5-min Rain = 0
KSM1 200830Z 05004KT 21/10 A2984 RMK A01 T02140096  RH  048%=      5-min Rain = 0
KSM1 200835Z 07004KT 20/12 A2984 RMK A01 T01990115  RH  060%=      5-min Rain = 0
KSM1 200840Z 06003KT 20/13 A2984 RMK A01 T01960127  RH  067%=      5-min Rain = 0
KSM1 200845Z 04002KT 20/13 A2984 RMK A01 T01950130  RH  069%=      5-min Rain = 0
KSM1 200850Z 04001KT 19/13 A2984 RMK A01 T01920133  RH  071%=      5-min Rain = 0
KSM1 200855Z 04001KT 19/13 A2984 RMK A01 T01920134  RH  072%=      5-min Rain = 0
KSM1 200900Z 05001KT 19/13 A2984 RMK A01 T01910133  RH  072%=      5-min Rain = 0
KSM1 200905Z 05002KT 19/13 A2984 RMK A01 T01890132  RH  072%=      5-min Rain = 0
KSM1 200910Z 06003KT 19/13 A2984 RMK A01 T01860132  RH  074%=      5-min Rain = 0
KSM1 200915Z 08003KT 18/13 A2984 RMK A01 T01830132  RH  075%=      5-min Rain = 0
KSM1 200920Z 11003KT 18/14 A2984 RMK A01 T01830135  RH  076%=      5-min Rain = 0
KSM1 200925Z 12002KT 19/13 A2984 RMK A01 T01850133  RH  075%=      5-min Rain = 0
KSM1 200930Z 12002KT 18/13 A2984 RMK A01 T01840132  RH  075%=      5-min Rain = 0
KSM1 200935Z 14003KT 19/13 A2984 RMK A01 T01860134  RH  075%=      5-min Rain = 0
KSM1 200940Z 17003KT 19/13 A2984 RMK A01 T01880134  RH  074%=      5-min Rain = 0
KSM1 200945Z 18004KT 19/13 A2983 RMK A01 T01900133  RH  073%=      5-min Rain = 0
KSM1 200950Z 19005KT 19/13 A2983 RMK A01 T01890134  RH  073%=      5-min Rain = 0
KSM1 200955Z 20004KT 19/13 A2983 RMK A01 T01910132  RH  071%=      5-min Rain = 0
KSM1 201000Z 21004KT 19/13 A2983 RMK A01 T01940127  RH  068%=      5-min Rain = 0
KSM1 201005Z 22004KT 19/12 A2983 RMK A01 T01930120  RH  065%=      5-min Rain = 0
KSM1 201010Z 23004KT 19/11 A2983 RMK A01 T01940111  RH  061%=      5-min Rain = 0
KSM1 201015Z 23004KT 20/10 A2984 RMK A01 T01960100  RH  055%=      5-min Rain = 0
KSM1 201020Z 24005KT 20/08 A2983 RMK A01 T01990081  RH  048%=      5-min Rain = 0
KSM1 201025Z 24006KT 20/07 A2983 RMK A01 T01990070  RH  044%=      5-min Rain = 0
KSM1 201030Z 25006KT 20/05 A2983 RMK A01 T02010053  RH  039%=      5-min Rain = 0
KSM1 201035Z 24005KT 20/05 A2983 RMK A01 T02020046  RH  036%=      5-min Rain = 0
KSM1 201040Z 24005KT 20/05 A2983 RMK A01 T02030045  RH  036%=      5-min Rain = 0
KSM1 201045Z 24005KT 20/05 A2983 RMK A01 T02020046  RH  036%=      5-min Rain = 0
KSM1 201050Z 24006KT 20/04 A2983 RMK A01 T02020041  RH  035%=      5-min Rain = 0
KSM1 201055Z 24006KT 20/04 A2983 RMK A01 T02030037  RH  034%=      5-min Rain = 0
KSM1 201100Z 25006KT 20/03 A2983 RMK A01 T02010033  RH  033%=      5-min Rain = 0
KSM1 201105Z 25006KT 20/03 A2983 RMK A01 T01990031  RH  033%=      5-min Rain = 0
KSM1 201110Z 25006KT 20/03 A2983 RMK A01 T01960031  RH  034%=      5-min Rain = 0
KSM1 201115Z 25005KT 20/03 A2984 RMK A01 T01950028  RH  034%=      5-min Rain = 0
KSM1 201120Z 26005KT 19/02 A2984 RMK A01 T01940023  RH  033%=      5-min Rain = 0
KSM1 201125Z 26005KT 20/02 A2984 RMK A01 T01950021  RH  032%=      5-min Rain = 0
KSM1 201130Z 25005KT 19/02 A2984 RMK A01 T01940022  RH  032%=      5-min Rain = 0
KSM1 201135Z 26005KT 19/02 A2984 RMK A01 T01930022  RH  033%=      5-min Rain = 0
KSM1 201140Z 26005KT 19/02 A2984 RMK A01 T01910023  RH  033%=      5-min Rain = 0
KSM1 201145Z 26005KT 19/03 A2984 RMK A01 T01890028  RH  035%=      5-min Rain = 0
KSM1 201150Z 26004KT 19/03 A2984 RMK A01 T01880033  RH  036%=      5-min Rain = 0
KSM1 201155Z 26004KT 19/05 A2985 RMK A01 T01850045  RH  040%=      5-min Rain = 0
KSM1 201200Z 26004KT 18/04 A2985 RMK A01 T01820038  RH  039%=      5-min Rain = 0
KSM1 201205Z 25005KT 18/04 A2985 RMK A01 T01790038  RH  040%=      5-min Rain = 0
KSM1 201210Z 24005KT 18/04 A2985 RMK A01 T01780041  RH  041%=      5-min Rain = 0
KSM1 201215Z 21005KT 17/05 A2986 RMK A01 T01730048  RH  044%=      5-min Rain = 0
KSM1 201220Z 18010KT 17/04 A2986 RMK A01 T01730039  RH  042%=      5-min Rain = 0
KSM1 201225Z 22006KT 18/02 A2986 RMK A01 T01830015  RH  033%=      5-min Rain = 0
KSM1 201230Z 21006KT 19/02 A2986 RMK A01 T01890017  RH  032%=      5-min Rain = 0
KSM1 201235Z 21006KT 19/02 A2986 RMK A01 T01930017  RH  032%=      5-min Rain = 0
KSM1 201240Z 20007KT 20/02 A2987 RMK A01 T01980015  RH  030%=      5-min Rain = 0
KSM1 201245Z 21003KT 20/02 A2987 RMK A01 T02020015  RH  029%=      5-min Rain = 0
KSM1 201250Z 21003KT 21/02 A2987 RMK A01 T02070022  RH  030%=      5-min Rain = 0
KSM1 201255Z 24002KT 21/01 A2987 RMK A01 T02120014  RH  027%=      5-min Rain = 0
KSM1 201300Z 23003KT 22/02 A2987 RMK A01 T02180018  RH  027%=      5-min Rain = 0
KSM1 201305Z 24004KT 22/02 A2987 RMK A01 T02190024  RH  028%=      5-min Rain = 0
KSM1 201310Z 23004KT 22/02 A2988 RMK A01 T02180022  RH  028%=      5-min Rain = 0
KSM1 201315Z 22005KT 22/02 A2988 RMK A01 T02180024  RH  028%=      5-min Rain = 0
KSM1 201320Z 22004KT 22/03 A2988 RMK A01 T02200028  RH  029%=      5-min Rain = 0
KSM1 201325Z 23003KT 23/02 A2988 RMK A01 T02250021  RH  027%=      5-min Rain = 0
KSM1 201330Z 23004KT 23/02 A2988 RMK A01 T02280019  RH  026%=      5-min Rain = 0
KSM1 201335Z 22004KT 23/03 A2988 RMK A01 T02290025  RH  026%=      5-min Rain = 0
KSM1 201340Z 22004KT 23/03 A2988 RMK A01 T02320026  RH  026%=      5-min Rain = 0
KSM1 201350Z 21006KT 24/01 A2988 RMK A01 T02430008  RH  022%=      5-min Rain = 0
KSM1 201355Z 21005KT 25/02 A2988 RMK A01 T02480016  RH  022%=      5-min Rain = 0
KSM1 201400Z 21005KT 25/01 A2988 RMK A01 T02520013  RH  021%=      5-min Rain = 0
KSM1 201405Z 21004KT 26/02 A2988 RMK A01 T02580018  RH  021%=      5-min Rain = 0
KSM1 201410Z 21005KT 26/01 A2988 RMK A01 T02630009  RH  019%=      5-min Rain = 0
KSM1 201415Z 21006KT 27/01 A2988 RMK A01 T02670008  RH  019%=      5-min Rain = 0
KSM1 201420Z 21009KT 27/M01 A2988 RMK A01 T02701007  RH  016%=      5-min Rain = 0
KSM1 201425Z 22007KT 27/00 A2989 RMK A01 T027200-0  RH  017%=      5-min Rain = 0
KSM1 201430Z 23007KT 27/M00 A2989 RMK A01 T02741002  RH  017%=      5-min Rain = 0
KSM1 201435Z 23007KT 28/M00 A2989 RMK A01 T02761004  RH  016%=      5-min Rain = 0
KSM1 201440Z 23006KT 28/00 A2989 RMK A01 T02790001  RH  017%=      5-min Rain = 0
KSM1 201445Z 23008KT 28/M01 A2989 RMK A01 T02831008  RH  015%=      5-min Rain = 0
KSM1 201450Z 24008KT 29/M01 A2989 RMK A01 T02861014  RH  014%=      5-min Rain = 0
KSM1 201455Z 25007KT 29/M01 A2989 RMK A01 T02901011  RH  014%=      5-min Rain = 0
KSM1 201500Z 24008KT 29/M02 A2989 RMK A01 T02931016  RH  014%=      5-min Rain = 0
KSM1 201505Z 23008KT 29/M02 A2989 RMK A01 T02941016  RH  013%=      5-min Rain = 0
KSM1 201510Z 24008KT 30/M02 A299 RMK A01 T02971017  RH  013%=      5-min Rain = 0
KSM1 201515Z 23008KT 30/M01 A299 RMK A01 T03001014  RH  013%=      5-min Rain = 0
KSM1 201520Z 23008KT 30/M01 A2989 RMK A01 T03011012  RH  013%=      5-min Rain = 0
KSM1 201525Z 23007KT 30/M01 A2989 RMK A01 T03041010  RH  013%=      5-min Rain = 0
KSM1 201530Z 23005KT 31/M01 A2989 RMK A01 T03061010  RH  013%=      5-min Rain = 0
KSM1 201535Z 23006G11KT 31/M01 A2989 RMK A01 T03091011  RH  013%=      5-min Rain = 0
KSM1 201540Z 22006KT 31/M01 A2989 RMK A01 T03101007  RH  013%=      5-min Rain = 0
KSM1 201545Z 21007KT 32/M01 A2989 RMK A01 T03151006  RH  013%=      5-min Rain = 0
KSM1 201550Z 21005KT 31/M01 A2988 RMK A01 T03141009  RH  013%=      5-min Rain = 0
KSM1 201555Z 22005KT 32/M01 A2988 RMK A01 T03161010  RH  012%=      5-min Rain = 0
KSM1 201600Z 22005KT 32/M00 A2988 RMK A01 T03201004  RH  013%=      5-min Rain = 0
KSM1 201605Z 20006KT 32/M00 A2988 RMK A01 T03231004  RH  012%=      5-min Rain = 0
KSM1 201610Z 22005KT 33/M01 A2988 RMK A01 T03251006  RH  012%=      5-min Rain = 0
KSM1 201615Z 23004KT 33/M01 A2988 RMK A01 T03261005  RH  012%=      5-min Rain = 0
KSM1 201620Z 22006KT 33/00 A2988 RMK A01 T03300001  RH  012%=      5-min Rain = 0
KSM1 201625Z 24004KT 33/M01 A2988 RMK A01 T03311009  RH  011%=      5-min Rain = 0
KSM1 201630Z 22003G8KT 33/M01 A2988 RMK A01 T03331005  RH  012%=      5-min Rain = 0
KSM1 201635Z 22004KT 33/M01 A2987 RMK A01 T03341005  RH  012%=      5-min Rain = 0
KSM1 201640Z 23005KT 34/00 A2987 RMK A01 T03370001  RH  012%=      5-min Rain = 0
KSM1 201645Z 22005KT 34/M00 A2987 RMK A01 T03391003  RH  011%=      5-min Rain = 0
KSM1 201650Z 21004KT 34/M00 A2987 RMK A01 T03411001  RH  011%=      5-min Rain = 0
KSM1 201655Z 24006KT 34/00 A2987 RMK A01 T034300-0  RH  011%=      5-min Rain = 0
KSM1 201700Z 24004KT 34/M01 A2987 RMK A01 T03421008  RH  011%=      5-min Rain = 0
KSM1 201705Z 22004KT 34/M00 A2987 RMK A01 T03431003  RH  011%=      5-min Rain = 0
KSM1 201710Z 20006KT 35/00 A2987 RMK A01 T03480002  RH  011%=      5-min Rain = 0
KSM1 201715Z 20006KT 35/00 A2987 RMK A01 T03520003  RH  011%=      5-min Rain = 0
KSM1 201720Z 20008KT 35/00 A2987 RMK A01 T03540003  RH  011%=      5-min Rain = 0
KSM1 201725Z 20008KT 36/00 A2987 RMK A01 T03560001  RH  011%=      5-min Rain = 0
KSM1 201730Z 22007KT 35/M00 A2987 RMK A01 T03541004  RH  010%=      5-min Rain = 0
KSM1 201735Z 22007KT 36/M01 A2987 RMK A01 T03551005  RH  010%=      5-min Rain = 0
KSM1 201740Z 23006G12KT 36/M00 A2987 RMK A01 T03571001  RH  011%=      5-min Rain = 0
KSM1 201745Z 21007KT 36/00 A2987 RMK A01 T03610002  RH  011%=      5-min Rain = 0
KSM1 201750Z 21007KT 36/M00 A2986 RMK A01 T03621002  RH  010%=      5-min Rain = 0
KSM1 201755Z 21007KT 37/00 A2986 RMK A01 T03650002  RH  010%=      5-min Rain = 0
KSM1 201800Z 24008KT 37/M01 A2986 RMK A01 T03661007  RH  010%=      5-min Rain = 0
KSM1 201805Z 23009KT 36/M00 A2986 RMK A01 T03641004  RH  010%=      5-min Rain = 0
KSM1 201810Z 22007KT 37/M00 A2986 RMK A01 T03671003  RH  010%=      5-min Rain = 0
KSM1 201815Z 21007G12KT 37/M00 A2986 RMK A01 T03701002  RH  010%=      5-min Rain = 0
KSM1 201820Z 20009G16KT 37/M00 A2986 RMK A01 T03731002  RH  010%=      5-min Rain = 0
KSM1 201825Z 20012KT 38/M01 A2986 RMK A01 T03751007  RH  009%=      5-min Rain = 0
KSM1 201830Z 19011G17KT 38/M01 A2985 RMK A01 T03761009  RH  009%=      5-min Rain = 0
KSM1 201835Z 21008G13KT 38/M01 A2985 RMK A01 T03751006  RH  009%=      5-min Rain = 0
KSM1 201840Z 20010KT 38/M01 A2985 RMK A01 T03761008  RH  009%=      5-min Rain = 0
KSM1 201845Z 22012G24KT 38/M01 A2985 RMK A01 T03781010  RH  009%=      5-min Rain = 0
KSM1 201850Z 24011KT 38/M02 A2985 RMK A01 T03761015  RH  009%=      5-min Rain = 0
KSM1 201855Z 24012G19KT 38/M02 A2984 RMK A01 T03761017  RH  008%=      5-min Rain = 0
KSM1 201900Z 24008G15KT 37/M02 A2984 RMK A01 T03741018  RH  008%=      5-min Rain = 0
KSM1 201905Z 21010KT 38/M01 A2984 RMK A01 T03781011  RH  009%=      5-min Rain = 0
KSM1 201910Z 21010G17KT 38/M01 A2984 RMK A01 T03801007  RH  009%=      5-min Rain = 0
KSM1 201915Z 20012G18KT 38/M01 A2984 RMK A01 T03801013  RH  008%=      5-min Rain = 0
KSM1 201920Z 21009G17KT 38/M01 A2984 RMK A01 T03791013  RH  009%=      5-min Rain = 0
KSM1 201925Z 22010G17KT 38/M01 A2984 RMK A01 T03781011  RH  009%=      5-min Rain = 0
KSM1 201930Z 22006KT 38/M02 A2983 RMK A01 T03771019  RH  008%=      5-min Rain = 0
KSM1 201935Z 20008G13KT 38/M01 A2983 RMK A01 T03801008  RH  009%=      5-min Rain = 0
KSM1 201940Z 22011G17KT 38/M01 A2983 RMK A01 T03821008  RH  009%=      5-min Rain = 0
KSM1 201945Z 19013G25KT 39/M01 A2983 RMK A01 T03861006  RH  009%=      5-min Rain = 0
KSM1 201950Z 18009G15KT 39/M01 A2983 RMK A01 T03851013  RH  008%=      5-min Rain = 0
KSM1 201955Z 19016G21KT 39/M01 A2983 RMK A01 T03851009  RH  009%=      5-min Rain = 0
KSM1 202000Z 18014G22KT 39/M01 A2983 RMK A01 T03861013  RH  008%=      5-min Rain = 0
KSM1 202005Z 18014G23KT 39/M01 A2982 RMK A01 T03861010  RH  008%=      5-min Rain = 0
KSM1 202010Z 18015G23KT 39/M01 A2982 RMK A01 T03871013  RH  008%=      5-min Rain = 0
KSM1 202015Z 19014G22KT 38/M01 A2982 RMK A01 T03841012  RH  008%=      5-min Rain = 0
KSM1 202020Z 20016G22KT 38/M01 A2982 RMK A01 T03841013  RH  008%=      5-min Rain = 0
KSM1 202025Z 19015G21KT 38/M01 A2982 RMK A01 T03821012  RH  008%=      5-min Rain = 0
KSM1 202030Z 19013G20KT 38/M02 A2982 RMK A01 T03811015  RH  008%=      5-min Rain = 0
KSM1 202035Z 18014G19KT 38/M01 A2981 RMK A01 T03841013  RH  008%=      5-min Rain = 0
KSM1 202040Z 18015G21KT 39/M01 A2981 RMK A01 T03861012  RH  008%=      5-min Rain = 0
KSM1 202045Z 21011G16KT 39/M01 A2981 RMK A01 T03881008  RH  008%=      5-min Rain = 0
KSM1 202050Z 22010G15KT 38/M01 A2981 RMK A01 T03831010  RH  009%=      5-min Rain = 0
KSM1 202055Z 19011G17KT 38/M01 A2981 RMK A01 T03831012  RH  008%=      5-min Rain = 0
KSM1 202100Z 21011KT 38/M01 A2981 RMK A01 T03801007  RH  009%=      5-min Rain = 0
KSM1 202105Z 21011G16KT 38/M01 A2981 RMK A01 T03831010  RH  009%=      5-min Rain = 0
KSM1 202110Z 21011G18KT 38/M01 A298 RMK A01 T03781014  RH  009%=      5-min Rain = 0
KSM1 202115Z 21010G15KT 38/M00 A298 RMK A01 T03831004  RH  009%=      5-min Rain = 0
KSM1 202120Z 21012KT 38/M01 A298 RMK A01 T03841013  RH  008%=      5-min Rain = 0
KSM1 202125Z 21010G19KT 39/M01 A2979 RMK A01 T03851011  RH  008%=      5-min Rain = 0
KSM1 202130Z 24016G25KT 38/M01 A2979 RMK A01 T03841014  RH  008%=      5-min Rain = 0
KSM1 202135Z 21015G21KT 39/M01 A2979 RMK A01 T03851013  RH  008%=      5-min Rain = 0
KSM1 202140Z 20011G20KT 38/M01 A2979 RMK A01 T03831014  RH  008%=      5-min Rain = 0
KSM1 202145Z 20015G21KT 38/M02 A2979 RMK A01 T03841015  RH  008%=      5-min Rain = 0
KSM1 202150Z 21013G20KT 38/M02 A2979 RMK A01 T03811017  RH  008%=      5-min Rain = 0
KSM1 202155Z 21011KT 37/M03 A2979 RMK A01 T03721025  RH  008%=      5-min Rain = 0
KSM1 202200Z 20011G18KT 37/M02 A2979 RMK A01 T03741023  RH  008%=      5-min Rain = 0
KSM1 202205Z 18011G18KT 38/M02 A2978 RMK A01 T03831020  RH  008%=      5-min Rain = 0
KSM1 202210Z 21011G17KT 39/M02 A2978 RMK A01 T03851017  RH  008%=      5-min Rain = 0
KSM1 202215Z 25014G22KT 38/M02 A2978 RMK A01 T03841022  RH  008%=      5-min Rain = 0
KSM1 202220Z 25013G20KT 38/M02 A2978 RMK A01 T03841022  RH  008%=      5-min Rain = 0
KSM1 202225Z 22016G22KT 38/M03 A2978 RMK A01 T03831028  RH  007%=      5-min Rain = 0
KSM1 202230Z 22012G20KT 38/M03 A2978 RMK A01 T03821030  RH  007%=      5-min Rain = 0
KSM1 202235Z 24015G20KT 38/M04 A2978 RMK A01 T03821035  RH  007%=      5-min Rain = 0
KSM1 202240Z 24010G15KT 38/M03 A2978 RMK A01 T03811033  RH  007%=      5-min Rain = 0
KSM1 202245Z 25014G25KT 38/M03 A2978 RMK A01 T03821031  RH  007%=      5-min Rain = 0
KSM1 202250Z 25014G20KT 38/M03 A2978 RMK A01 T03821032  RH  007%=      5-min Rain = 0
KSM1 202255Z 24011G23KT 38/M03 A2978 RMK A01 T03801028  RH  008%=      5-min Rain = 0
KSM1 202300Z 23012G17KT 38/M02 A2977 RMK A01 T03811022  RH  008%=      5-min Rain = 0
KSM1 202305Z 22013G18KT 38/M03 A2977 RMK A01 T03801026  RH  008%=      5-min Rain = 0
KSM1 202310Z 22010KT 38/M02 A2977 RMK A01 T03801022  RH  008%=      5-min Rain = 0
KSM1 202315Z 22015G22KT 38/M03 A2977 RMK A01 T03791030  RH  008%=      5-min Rain = 0
KSM1 202320Z 21013G19KT 38/M03 A2977 RMK A01 T03791033  RH  007%=      5-min Rain = 0
KSM1 202325Z 21011G16KT 38/M03 A2977 RMK A01 T03791034  RH  007%=      5-min Rain = 0
KSM1 202330Z 20018G28KT 38/M04 A2976 RMK A01 T03791042  RH  007%=      5-min Rain = 0
KSM1 202335Z 21018G24KT 38/M04 A2976 RMK A01 T03771042  RH  007%=      5-min Rain = 0
KSM1 202340Z 22015G25KT 38/M04 A2976 RMK A01 T03771035  RH  007%=      5-min Rain = 0
KSM1 202345Z 22017G24KT 38/M04 A2976 RMK A01 T03771039  RH  007%=      5-min Rain = 0
KSM1 202350Z 22015G23KT 38/M04 A2976 RMK A01 T03751040  RH  007%=      5-min Rain = 0
KSM1 202355Z 22013KT 37/M04 A2976 RMK A01 T03741037  RH  007%=      5-min Rain = 0
KSM1 210000Z 23012G20KT 37/M04 A2976 RMK A01 T03741038  RH  007%=      5-min Rain = 0
KSM1 210005Z 24014G21KT 37/M04 A2976 RMK A01 T03731042  RH  007%=      5-min Rain = 0
KSM1 210010Z 22016G22KT 37/M04 A2976 RMK A01 T03711041  RH  007%=      5-min Rain = 0
KSM1 210015Z 23014G19KT 37/M04 A2976 RMK A01 T03711040  RH  007%=      5-min Rain = 0
KSM1 210020Z 22015G22KT 37/M04 A2976 RMK A01 T03691040  RH  007%=      5-min Rain = 0
KSM1 210025Z 24014G19KT 37/M05 A2976 RMK A01 T03691045  RH  007%=      5-min Rain = 0
KSM1 210030Z 24013G21KT 37/M04 A2976 RMK A01 T03671044  RH  007%=      5-min Rain = 0
KSM1 210035Z 23016G22KT 37/M05 A2976 RMK A01 T03671048  RH  007%=      5-min Rain = 0
KSM1 210040Z 23015G20KT 37/M05 A2977 RMK A01 T03651048  RH  007%=      5-min Rain = 0
KSM1 210045Z 23013G18KT 36/M05 A2977 RMK A01 T03631050  RH  007%=      5-min Rain = 0
KSM1 210050Z 23014G20KT 36/M05 A2977 RMK A01 T03621052  RH  007%=      5-min Rain = 0
KSM1 210055Z 22017G22KT 36/M05 A2977 RMK A01 T03601054  RH  007%=      5-min Rain = 0
KSM1 210100Z 22014G20KT 36/M05 A2977 RMK A01 T03581050  RH  007%=      5-min Rain = 0
KSM1 210105Z 22016KT 36/M05 A2977 RMK A01 T03571052  RH  007%=      5-min Rain = 0
KSM1 210110Z 22014G20KT 36/M06 A2977 RMK A01 T03561055  RH  007%=      5-min Rain = 0
KSM1 210115Z 21012G18KT 35/M05 A2977 RMK A01 T03541052  RH  007%=      5-min Rain = 0
KSM1 210120Z 21013G19KT 35/M06 A2977 RMK A01 T03531057  RH  007%=      5-min Rain = 0
KSM1 210125Z 21015KT 35/M06 A2977 RMK A01 T03521059  RH  007%=      5-min Rain = 0
KSM1 210130Z 21014G19KT 35/M06 A2977 RMK A01 T03511058  RH  007%=      5-min Rain = 0
KSM1 210135Z 21014KT 35/M06 A2977 RMK A01 T03491058  RH  007%=      5-min Rain = 0
KSM1 210140Z 21013KT 35/M06 A2978 RMK A01 T03471057  RH  007%=      5-min Rain = 0
KSM1 210145Z 21011KT 34/M06 A2978 RMK A01 T03441057  RH  007%=      5-min Rain = 0
KSM1 210150Z 21011KT 34/M06 A2978 RMK A01 T03401055  RH  008%=      5-min Rain = 0
KSM1 210155Z 21013KT 34/M06 A2978 RMK A01 T03391057  RH  008%=      5-min Rain = 0
KSM1 210200Z 21012KT 34/M06 A2978 RMK A01 T03371059  RH  008%=      5-min Rain = 0
KSM1 210205Z 21012KT 34/M06 A2978 RMK A01 T03351059  RH  008%=      5-min Rain = 0
KSM1 210210Z 21011KT 33/M06 A2978 RMK A01 T03331058  RH  008%=      5-min Rain = 0
KSM1 210215Z 21011KT 33/M06 A2978 RMK A01 T03301058  RH  008%=      5-min Rain = 0
KSM1 210220Z 21011KT 33/M06 A2978 RMK A01 T03281058  RH  008%=      5-min Rain = 0
KSM1 210225Z 21010KT 33/M06 A2979 RMK A01 T03251057  RH  008%=      5-min Rain = 0
KSM1 210230Z 21011KT 32/M06 A2979 RMK A01 T03231057  RH  008%=      5-min Rain = 0
KSM1 210235Z 21010KT 32/M06 A2979 RMK A01 T03211057  RH  008%=      5-min Rain = 0
KSM1 210240Z 21011KT 32/M06 A2979 RMK A01 T03191057  RH  008%=      5-min Rain = 0
KSM1 210245Z 21011KT 32/M06 A2979 RMK A01 T03191058  RH  008%=      5-min Rain = 0
KSM1 210250Z 21010KT 32/M06 A2979 RMK A01 T03161057  RH  009%=      5-min Rain = 0
KSM1 210255Z 22010G15KT 31/M06 A2979 RMK A01 T03121056  RH  009%=      5-min Rain = 0
KSM1 210300Z 22011KT 31/M06 A2979 RMK A01 T03101058  RH  009%=      5-min Rain = 0
KSM1 210305Z 21010KT 31/M06 A2979 RMK A01 T03101058  RH  009%=      5-min Rain = 0
KSM1 210310Z 22010KT 31/M06 A298 RMK A01 T03091059  RH  009%=      5-min Rain = 0
KSM1 210315Z 22010G16KT 31/M06 A298 RMK A01 T03061058  RH  009%=      5-min Rain = 0
KSM1 210320Z 21010KT 31/M06 A298 RMK A01 T03061059  RH  009%=      5-min Rain = 0
KSM1 210325Z 22010KT 30/M06 A298 RMK A01 T03031059  RH  009%=      5-min Rain = 0
KSM1 210330Z 22010KT 30/M06 A298 RMK A01 T03021058  RH  009%=      5-min Rain = 0
KSM1 210335Z 22011KT 30/M06 A298 RMK A01 T02991058  RH  009%=      5-min Rain = 0
KSM1 210340Z 22010KT 30/M06 A298 RMK A01 T02951057  RH  010%=      5-min Rain = 0
KSM1 210345Z 22009KT 29/M06 A2981 RMK A01 T02911056  RH  010%=      5-min Rain = 0
KSM1 210350Z 23010KT 29/M06 A2981 RMK A01 T02921059  RH  010%=      5-min Rain = 0
KSM1 210355Z 23010KT 29/M06 A2981 RMK A01 T02941059  RH  010%=      5-min Rain = 0
KSM1 210400Z 23010KT 29/M06 A2981 RMK A01 T02941060  RH  010%=      5-min Rain = 0
KSM1 210405Z 23010KT 30/M06 A2981 RMK A01 T02951061  RH  009%=      5-min Rain = 0
KSM1 210410Z 23009KT 29/M06 A2981 RMK A01 T02931060  RH  010%=      5-min Rain = 0
KSM1 210415Z 23010G15KT 29/M06 A2981 RMK A01 T02901060  RH  010%=      5-min Rain = 0
KSM1 210420Z 23009KT 29/M06 A2981 RMK A01 T02881061  RH  010%=      5-min Rain = 0
KSM1 210425Z 23009KT 29/M06 A2981 RMK A01 T02871061  RH  010%=      5-min Rain = 0
KSM1 210430Z 23008KT 29/M06 A2981 RMK A01 T02851060  RH  010%=      5-min Rain = 0
KSM1 210435Z 23009KT 28/M06 A2981 RMK A01 T02831060  RH  010%=      5-min Rain = 0
KSM1 210440Z 23009G14KT 28/M06 A2981 RMK A01 T02821061  RH  010%=      5-min Rain = 0
KSM1 210445Z 23009KT 28/M06 A2981 RMK A01 T02821061  RH  010%=      5-min Rain = 0
KSM1 210450Z 23010KT 28/M06 A2981 RMK A01 T02801060  RH  010%=      5-min Rain = 0
KSM1 210455Z 23009G15KT 28/M06 A2981 RMK A01 T02801061  RH  010%=      5-min Rain = 0

Page generated in 0.0151 seconds.